createdAt,value
2018-10-03T00:01:41.670Z,11.20
2018-10-03T00:04:09.852Z,11.20
2018-10-03T00:06:38.107Z,11.10
2018-10-03T00:09:07.903Z,11.10
2018-10-03T00:11:36.108Z,11.00
2018-10-03T00:14:04.644Z,11.00
2018-10-03T00:16:32.843Z,11.00
2018-10-03T00:19:01.048Z,11.00
2018-10-03T00:21:29.307Z,11.10
2018-10-03T00:23:57.491Z,11.00
2018-10-03T00:26:25.733Z,11.00
2018-10-03T00:28:53.980Z,11.00
2018-10-03T00:31:22.164Z,11.00
2018-10-03T00:33:50.340Z,11.00
2018-10-03T00:36:18.608Z,11.10
2018-10-03T00:38:46.791Z,11.10
2018-10-03T00:41:14.979Z,11.20
2018-10-03T00:43:43.178Z,11.10
2018-10-03T00:46:11.356Z,11.20
2018-10-03T00:48:39.552Z,11.10
2018-10-03T00:51:07.760Z,11.10
2018-10-03T00:53:35.955Z,11.10
2018-10-03T00:56:04.202Z,11.20
2018-10-03T00:58:32.400Z,11.20
2018-10-03T01:01:00.592Z,11.20
2018-10-03T01:03:28.794Z,11.20
2018-10-03T01:05:56.989Z,11.20
2018-10-03T01:08:25.192Z,11.20
2018-10-03T01:10:53.384Z,11.20
2018-10-03T01:13:21.583Z,11.20
2018-10-03T01:15:49.764Z,11.20
2018-10-03T01:18:19.006Z,11.20
2018-10-03T01:20:47.229Z,11.20
2018-10-03T01:23:15.419Z,11.20
2018-10-03T01:25:43.612Z,11.10
2018-10-03T01:28:11.806Z,11.00
2018-10-03T01:30:40.007Z,11.00
2018-10-03T01:33:08.207Z,10.90
2018-10-03T01:35:36.412Z,11.00
2018-10-03T01:38:04.588Z,10.90
2018-10-03T01:40:32.853Z,10.90
2018-10-03T01:43:01.003Z,11.00
2018-10-03T01:45:29.191Z,11.00
2018-10-03T01:47:57.495Z,11.00
2018-10-03T01:50:25.683Z,11.00
2018-10-03T01:52:53.910Z,11.00
2018-10-03T01:55:22.116Z,11.00
2018-10-03T01:57:50.314Z,11.00
2018-10-03T02:00:18.469Z,11.00
2018-10-03T02:02:46.639Z,11.10
2018-10-03T02:05:14.830Z,11.00
2018-10-03T02:07:43.040Z,11.00
2018-10-03T02:10:11.240Z,10.90
2018-10-03T02:12:39.428Z,11.00
2018-10-03T02:15:07.615Z,11.00
2018-10-03T02:17:35.830Z,11.00
2018-10-03T02:20:04.065Z,11.10
2018-10-03T02:22:32.253Z,11.20
2018-10-03T02:25:00.460Z,11.20
2018-10-03T02:27:28.689Z,11.30
2018-10-03T02:29:56.872Z,11.30
2018-10-03T02:32:25.062Z,11.30
2018-10-03T02:34:53.247Z,11.40
2018-10-03T02:37:21.551Z,11.40
2018-10-03T02:39:49.742Z,11.50
2018-10-03T02:42:18.098Z,11.50
2018-10-03T02:44:46.308Z,11.50
2018-10-03T02:47:14.529Z,11.50
2018-10-03T02:49:42.695Z,11.50
2018-10-03T02:52:10.911Z,11.60
2018-10-03T02:54:39.159Z,11.70
2018-10-03T02:57:07.430Z,11.60
2018-10-03T02:59:35.629Z,11.60
2018-10-03T03:02:03.826Z,11.60
2018-10-03T03:04:32.028Z,11.60
2018-10-03T03:07:00.228Z,11.70
2018-10-03T03:09:28.460Z,11.60
2018-10-03T03:11:56.691Z,11.60
2018-10-03T03:14:24.877Z,11.60
2018-10-03T03:16:53.103Z,11.60
2018-10-03T03:19:21.328Z,11.60
2018-10-03T03:21:49.543Z,11.50
2018-10-03T03:24:17.732Z,11.50
2018-10-03T03:26:45.984Z,11.60
2018-10-03T03:29:14.150Z,11.60
2018-10-03T03:31:42.323Z,11.60
2018-10-03T03:34:10.536Z,11.60
2018-10-03T03:36:38.777Z,11.70
2018-10-03T03:39:07.740Z,11.80
2018-10-03T03:41:36.080Z,11.80
2018-10-03T03:44:04.316Z,11.90
2018-10-03T03:46:32.550Z,11.90
2018-10-03T03:49:00.753Z,11.80
2018-10-03T03:51:28.948Z,11.90
2018-10-03T03:53:57.190Z,11.90
2018-10-03T03:56:25.651Z,11.90
2018-10-03T03:58:53.894Z,11.90
2018-10-03T04:01:22.135Z,11.90
2018-10-03T04:03:50.376Z,11.80
2018-10-03T04:06:18.595Z,11.90
2018-10-03T04:08:46.796Z,11.90
2018-10-03T04:11:15.010Z,11.80
2018-10-03T04:13:43.268Z,11.80
2018-10-03T04:16:11.505Z,11.70
2018-10-03T04:18:39.727Z,11.70
2018-10-03T04:21:07.930Z,11.70
2018-10-03T04:23:36.146Z,11.60
2018-10-03T04:26:04.383Z,11.60
2018-10-03T04:28:32.588Z,11.60
2018-10-03T04:31:00.815Z,11.60
2018-10-03T04:33:29.040Z,11.60
2018-10-03T04:35:57.259Z,11.60
2018-10-03T04:38:25.440Z,11.60
2018-10-03T04:40:53.656Z,11.60
2018-10-03T04:43:21.839Z,11.60
2018-10-03T04:45:50.113Z,11.60
2018-10-03T04:48:18.337Z,11.60
2018-10-03T04:50:46.578Z,11.60
2018-10-03T04:53:14.813Z,11.60
2018-10-03T04:55:43.025Z,11.50
2018-10-03T04:58:11.252Z,11.50
2018-10-03T05:00:39.517Z,11.50
2018-10-03T05:03:07.724Z,11.50
2018-10-03T05:05:35.907Z,11.50
2018-10-03T05:08:04.128Z,11.50
2018-10-03T05:10:32.334Z,11.50
2018-10-03T05:13:00.537Z,11.50
2018-10-03T05:15:28.745Z,11.50
2018-10-03T05:17:56.965Z,11.40
2018-10-03T05:20:25.176Z,11.50
2018-10-03T05:22:53.510Z,11.50
2018-10-03T05:25:21.733Z,11.50
2018-10-03T05:27:50.190Z,11.50
2018-10-03T05:30:18.329Z,11.50
2018-10-03T05:32:46.572Z,11.50
2018-10-03T05:35:14.838Z,11.40
2018-10-03T05:37:43.186Z,11.30
2018-10-03T05:40:11.568Z,11.30
2018-10-03T05:42:39.786Z,11.30
2018-10-03T05:45:08.093Z,11.30
2018-10-03T05:47:36.307Z,11.30
2018-10-03T05:50:04.528Z,11.30
2018-10-03T05:52:32.726Z,11.20
2018-10-03T05:55:00.936Z,11.20
2018-10-03T05:57:29.151Z,11.30
2018-10-03T05:59:57.355Z,11.30
2018-10-03T06:02:25.549Z,11.30
2018-10-03T06:04:53.771Z,11.30
2018-10-03T06:07:21.993Z,11.40
2018-10-03T06:09:50.196Z,11.40
2018-10-03T06:12:18.481Z,11.40
2018-10-03T06:14:46.620Z,11.40
2018-10-03T06:17:14.799Z,11.50
2018-10-03T06:19:44.853Z,11.50
2018-10-03T06:22:15.208Z,11.40
2018-10-03T06:24:43.431Z,11.50
2018-10-03T06:27:12.129Z,11.50
2018-10-03T06:29:40.315Z,11.50
2018-10-03T06:32:08.460Z,11.40
2018-10-03T06:34:36.618Z,11.40
2018-10-03T06:37:04.800Z,11.40
2018-10-03T06:39:33.063Z,11.50
2018-10-03T06:42:01.252Z,11.50
2018-10-03T06:44:29.439Z,11.50
2018-10-03T06:46:57.616Z,11.40
2018-10-03T06:49:25.768Z,11.50
2018-10-03T06:51:53.923Z,11.50
2018-10-03T06:54:22.081Z,11.40
2018-10-03T06:56:50.318Z,11.50
2018-10-03T06:59:18.464Z,11.60
2018-10-03T07:01:46.618Z,11.50
2018-10-03T07:04:14.808Z,11.60
2018-10-03T07:06:42.955Z,11.80
2018-10-03T07:09:11.120Z,12.10
2018-10-03T07:11:39.348Z,12.40
2018-10-03T07:14:07.513Z,12.60
2018-10-03T07:16:35.668Z,12.80
2018-10-03T07:19:03.836Z,13.10
2018-10-03T07:21:31.999Z,13.40
2018-10-03T07:24:00.155Z,13.50
2018-10-03T07:26:28.311Z,13.60
2018-10-03T07:28:56.479Z,13.60
2018-10-03T07:31:24.633Z,13.80
2018-10-03T07:33:52.855Z,14.10
2018-10-03T07:36:21.040Z,14.50
2018-10-03T07:38:49.238Z,14.50
2018-10-03T07:41:17.413Z,14.20
2018-10-03T07:43:45.708Z,14.30
2018-10-03T07:46:13.903Z,13.90
2018-10-03T07:48:44.316Z,14.00
2018-10-03T07:51:12.484Z,14.20
2018-10-03T07:53:40.788Z,15.20
2018-10-03T07:56:08.983Z,15.20
2018-10-03T07:58:37.143Z,15.40
2018-10-03T08:01:05.334Z,15.20
2018-10-03T08:03:33.534Z,15.50
2018-10-03T08:06:01.666Z,15.40
2018-10-03T08:08:29.827Z,16.00
2018-10-03T08:10:57.991Z,15.40
2018-10-03T08:13:26.145Z,15.40
2018-10-03T08:15:54.319Z,15.60
2018-10-03T08:18:22.496Z,15.40
2018-10-03T08:20:50.672Z,15.60
2018-10-03T08:23:18.832Z,15.70
2018-10-03T08:25:47.110Z,15.80
2018-10-03T08:28:15.477Z,16.10
2018-10-03T08:30:43.619Z,15.90
2018-10-03T08:33:11.840Z,16.20
2018-10-03T08:35:40.000Z,17.40
2018-10-03T08:38:08.188Z,17.60
2018-10-03T08:40:36.339Z,16.80
2018-10-03T08:43:04.514Z,16.30
2018-10-03T08:45:32.727Z,16.60
2018-10-03T08:48:00.904Z,16.80
2018-10-03T08:50:29.073Z,16.90
2018-10-03T08:52:57.219Z,17.30
2018-10-03T08:55:25.472Z,16.50
2018-10-03T08:57:53.642Z,16.70
2018-10-03T09:00:21.865Z,16.30
2018-10-03T09:02:50.108Z,16.50
2018-10-03T09:05:18.314Z,16.90
2018-10-03T09:07:46.523Z,16.80
2018-10-03T09:10:14.839Z,16.70
2018-10-03T09:12:43.047Z,16.50
2018-10-03T09:15:11.208Z,16.00
2018-10-03T09:17:39.411Z,16.20
2018-10-03T09:20:07.745Z,16.20
2018-10-03T09:22:35.916Z,16.30
2018-10-03T09:25:04.173Z,16.00
2018-10-03T09:27:32.370Z,16.80
2018-10-03T09:30:00.584Z,16.80
2018-10-03T09:32:28.838Z,16.60
2018-10-03T09:34:57.024Z,16.40
2018-10-03T09:37:25.292Z,16.00
2018-10-03T09:39:53.465Z,16.30
2018-10-03T09:42:21.665Z,16.60
2018-10-03T09:44:49.830Z,17.50
2018-10-03T09:47:18.037Z,17.00
2018-10-03T09:49:46.301Z,16.00
2018-10-03T09:52:14.438Z,15.20
2018-10-03T09:54:42.615Z,15.10
2018-10-03T09:57:10.903Z,14.50
2018-10-03T09:59:39.260Z,14.30
2018-10-03T10:02:07.415Z,14.40
2018-10-03T10:04:35.705Z,14.60
2018-10-03T10:07:03.960Z,14.50
2018-10-03T10:09:32.152Z,14.40
2018-10-03T10:12:00.369Z,15.10
2018-10-03T10:14:28.585Z,16.40
2018-10-03T10:16:57.042Z,16.70
2018-10-03T10:19:25.269Z,15.90
2018-10-03T10:21:53.478Z,15.30
2018-10-03T10:24:21.687Z,15.00
2018-10-03T10:26:49.915Z,15.60
2018-10-03T10:29:18.124Z,16.20
2018-10-03T10:31:46.350Z,17.00
2018-10-03T10:34:14.491Z,17.40
2018-10-03T10:36:42.702Z,17.30
2018-10-03T10:39:12.026Z,17.10
2018-10-03T10:41:40.502Z,16.60
2018-10-03T10:44:08.575Z,15.60
2018-10-03T10:46:38.081Z,15.30
2018-10-03T10:49:06.272Z,14.90
2018-10-03T10:51:34.534Z,14.90
2018-10-03T10:54:02.780Z,14.60
2018-10-03T10:56:30.981Z,14.50
2018-10-03T10:58:59.142Z,14.40
2018-10-03T11:01:27.486Z,15.40
2018-10-03T11:03:55.752Z,16.10
2018-10-03T11:06:24.070Z,16.60
2018-10-03T11:08:52.323Z,16.20
2018-10-03T11:11:20.652Z,16.90
2018-10-03T11:13:48.908Z,16.70
2018-10-03T11:16:17.153Z,17.90
2018-10-03T11:18:45.433Z,18.20
2018-10-03T11:21:13.667Z,18.70
2018-10-03T11:23:42.049Z,18.90
2018-10-03T11:26:10.044Z,19.70
2018-10-03T11:28:38.269Z,19.50
2018-10-03T11:31:06.525Z,18.50
2018-10-03T11:33:34.729Z,17.80
2018-10-03T11:36:02.938Z,17.00
2018-10-03T11:38:31.119Z,16.50
2018-10-03T11:40:59.358Z,16.40
2018-10-03T11:43:27.548Z,15.90
2018-10-03T11:45:55.789Z,15.70
2018-10-03T11:48:24.052Z,15.70
2018-10-03T11:50:52.274Z,15.70
2018-10-03T11:53:20.485Z,15.80
2018-10-03T11:55:48.698Z,16.00
2018-10-03T11:58:16.941Z,15.80
2018-10-03T12:00:45.161Z,15.90
2018-10-03T12:03:13.472Z,15.50
2018-10-03T12:05:43.636Z,15.30
2018-10-03T12:08:11.868Z,15.10
2018-10-03T12:10:40.061Z,15.50
2018-10-03T12:13:08.283Z,15.70
2018-10-03T12:15:36.482Z,15.70
2018-10-03T12:18:04.684Z,16.00
2018-10-03T12:20:32.851Z,16.20
2018-10-03T12:23:01.003Z,16.90
2018-10-03T12:25:29.228Z,17.30
2018-10-03T12:27:57.401Z,17.60
2018-10-03T12:30:25.580Z,18.50
2018-10-03T12:32:53.784Z,17.90
2018-10-03T12:35:27.320Z,17.70
2018-10-03T12:37:55.520Z,17.50
2018-10-03T12:40:23.704Z,17.60
2018-10-03T12:42:51.927Z,17.70
2018-10-03T12:45:20.127Z,17.90
2018-10-03T12:47:48.344Z,17.70
2018-10-03T12:50:16.552Z,17.40
2018-10-03T12:52:44.719Z,16.80
2018-10-03T12:55:12.980Z,16.50
2018-10-03T12:57:41.170Z,16.60
2018-10-03T13:00:09.436Z,16.70
2018-10-03T13:02:37.624Z,16.70
2018-10-03T13:05:05.911Z,17.10
2018-10-03T13:07:34.141Z,17.10
2018-10-03T13:10:02.452Z,16.80
2018-10-03T13:12:30.644Z,17.20
2018-10-03T13:14:58.863Z,17.50
2018-10-03T13:17:27.029Z,17.30
2018-10-03T13:19:55.204Z,16.80
2018-10-03T13:22:23.379Z,16.50
2018-10-03T13:24:51.699Z,16.30
2018-10-03T13:27:19.873Z,16.50
2018-10-03T13:29:48.053Z,16.60
2018-10-03T13:32:16.280Z,16.70
2018-10-03T13:34:44.472Z,16.50
2018-10-03T13:37:12.643Z,16.40
2018-10-03T13:39:40.860Z,16.50
2018-10-03T13:42:09.076Z,16.50
2018-10-03T13:44:37.284Z,16.30
2018-10-03T13:47:05.564Z,16.20
2018-10-03T13:49:33.793Z,16.20
2018-10-03T13:52:01.961Z,16.40
2018-10-03T13:54:31.212Z,16.30
2018-10-03T13:56:59.455Z,16.10
2018-10-03T13:59:27.616Z,16.10
2018-10-03T14:01:55.900Z,16.30
2018-10-03T14:04:24.043Z,16.20
2018-10-03T14:06:52.216Z,15.80
2018-10-03T14:09:20.440Z,16.10
2018-10-03T14:11:48.684Z,16.20
2018-10-03T14:14:16.884Z,16.30
2018-10-03T14:16:45.132Z,15.90
2018-10-03T14:19:13.419Z,15.80
2018-10-03T14:21:41.689Z,16.00
2018-10-03T14:24:09.878Z,16.00
2018-10-03T14:26:38.135Z,16.10
2018-10-03T14:29:06.309Z,16.20
2018-10-03T14:31:34.510Z,16.20
2018-10-03T14:34:02.664Z,16.10
2018-10-03T14:36:30.836Z,16.00
2018-10-03T14:38:59.427Z,15.70
2018-10-03T14:41:32.099Z,15.60
2018-10-03T14:44:00.325Z,15.20
2018-10-03T14:46:28.606Z,15.10
2018-10-03T14:48:56.718Z,14.90
2018-10-03T14:51:24.883Z,15.20
2018-10-03T14:53:53.048Z,15.40
2018-10-03T14:56:21.263Z,15.50
2018-10-03T14:58:49.605Z,15.70
2018-10-03T15:01:17.705Z,15.50
2018-10-03T15:03:46.039Z,15.40
2018-10-03T15:06:14.266Z,15.30
2018-10-03T15:08:42.560Z,15.00
2018-10-03T15:11:10.756Z,14.80
2018-10-03T15:13:38.979Z,14.90
2018-10-03T15:16:07.228Z,15.00
2018-10-03T15:18:35.463Z,15.00
2018-10-03T15:21:03.671Z,14.90
2018-10-03T15:23:31.843Z,14.90
2018-10-03T15:26:00.038Z,14.90
2018-10-03T15:28:28.256Z,14.90
2018-10-03T15:30:56.583Z,14.60
2018-10-03T15:33:24.767Z,14.50
2018-10-03T15:35:52.949Z,14.40
2018-10-03T15:38:21.096Z,14.20
2018-10-03T15:40:49.271Z,14.10
2018-10-03T15:43:17.444Z,14.10
2018-10-03T15:45:45.628Z,14.00
2018-10-03T15:48:13.882Z,14.00
2018-10-03T15:50:41.999Z,14.00
2018-10-03T15:53:10.254Z,14.00
2018-10-03T15:55:38.679Z,14.00
2018-10-03T15:58:06.831Z,14.00
2018-10-03T16:00:35.372Z,13.80
2018-10-03T16:03:03.571Z,13.70
2018-10-03T16:05:31.726Z,13.60
2018-10-03T16:07:59.878Z,13.50
2018-10-03T16:10:28.043Z,13.50
2018-10-03T16:12:56.192Z,13.30
2018-10-03T16:15:24.364Z,13.30
2018-10-03T16:17:53.120Z,13.20
2018-10-03T16:20:21.340Z,13.00
2018-10-03T16:22:49.514Z,13.00
2018-10-03T16:25:17.691Z,12.80
2018-10-03T16:27:45.921Z,12.80
2018-10-03T16:30:14.135Z,12.70
2018-10-03T16:32:42.294Z,12.70
2018-10-03T16:35:10.814Z,12.60
2018-10-03T16:37:39.025Z,12.50
2018-10-03T16:40:09.751Z,12.40
2018-10-03T16:42:37.920Z,12.30
2018-10-03T16:45:06.136Z,12.20
2018-10-03T16:47:34.356Z,12.10
2018-10-03T16:50:02.650Z,12.00
2018-10-03T16:52:30.790Z,11.90
2018-10-03T16:54:58.967Z,11.80
2018-10-03T16:57:27.174Z,11.60
2018-10-03T16:59:55.401Z,11.50
2018-10-03T17:02:23.562Z,11.40
2018-10-03T17:04:51.735Z,11.30
2018-10-03T17:07:19.980Z,11.20
2018-10-03T17:09:48.216Z,11.00
2018-10-03T17:12:16.390Z,10.90
2018-10-03T17:14:44.605Z,10.70
2018-10-03T17:17:12.835Z,10.70
2018-10-03T17:19:41.046Z,10.60
2018-10-03T17:22:09.299Z,10.50
2018-10-03T17:24:38.308Z,10.40
2018-10-03T17:27:06.649Z,10.20
2018-10-03T17:29:34.825Z,10.10
2018-10-03T17:32:03.009Z,10.10
2018-10-03T17:34:31.332Z,10.00
2018-10-03T17:37:00.624Z,10.00
2018-10-03T17:39:28.926Z,9.80
2018-10-03T17:41:57.371Z,9.80
2018-10-03T17:44:25.739Z,9.70
2018-10-03T17:46:56.296Z,9.60
2018-10-03T17:49:24.547Z,9.50
2018-10-03T17:51:52.832Z,9.40
2018-10-03T17:54:21.040Z,9.40
2018-10-03T17:56:49.251Z,9.30
2018-10-03T17:59:17.470Z,9.30
2018-10-03T18:01:48.510Z,9.20
2018-10-03T18:04:16.796Z,9.20
2018-10-03T18:06:45.003Z,9.20
2018-10-03T18:09:13.237Z,9.20
2018-10-03T18:11:41.369Z,9.00
2018-10-03T18:14:09.530Z,9.00
2018-10-03T18:16:37.730Z,8.90
2018-10-03T18:19:05.945Z,8.90
2018-10-03T18:21:34.792Z,8.80
2018-10-03T18:24:02.957Z,8.70
2018-10-03T18:26:31.136Z,8.70
2018-10-03T18:28:59.308Z,8.60
2018-10-03T18:31:27.575Z,8.50
2018-10-03T18:33:55.935Z,8.40
2018-10-03T18:36:24.178Z,8.40
2018-10-03T18:38:55.094Z,8.40
2018-10-03T18:41:23.466Z,8.30
2018-10-03T18:43:51.716Z,8.20
2018-10-03T18:46:19.978Z,8.10
2018-10-03T18:48:48.405Z,8.10
2018-10-03T18:51:16.838Z,8.20
2018-10-03T18:53:45.012Z,8.20
2018-10-03T18:56:13.258Z,8.10
2018-10-03T18:58:41.529Z,8.00
2018-10-03T19:01:09.855Z,7.90
2018-10-03T19:03:38.027Z,7.90
2018-10-03T19:06:06.213Z,7.90
2018-10-03T19:08:34.751Z,7.90
2018-10-03T19:11:03.018Z,7.90
2018-10-03T19:13:31.224Z,7.70
2018-10-03T19:15:59.453Z,7.60
2018-10-03T19:18:27.595Z,7.50
2018-10-03T19:20:55.763Z,7.40
2018-10-03T19:23:23.940Z,7.40
2018-10-03T19:25:52.093Z,7.30
2018-10-03T19:28:20.332Z,7.20
2018-10-03T19:30:48.487Z,7.20
2018-10-03T19:33:19.647Z,7.20
2018-10-03T19:35:47.879Z,7.10
2018-10-03T19:38:15.960Z,7.00
2018-10-03T19:40:44.103Z,7.00
2018-10-03T19:43:12.263Z,6.90
2018-10-03T19:45:40.540Z,6.90
2018-10-03T19:48:08.791Z,6.90
2018-10-03T19:50:36.859Z,6.80
2018-10-03T19:53:05.040Z,6.70
2018-10-03T19:55:33.867Z,6.70
2018-10-03T19:58:02.058Z,6.70
2018-10-03T20:00:30.444Z,6.70
2018-10-03T20:02:58.599Z,6.60
2018-10-03T20:05:26.840Z,6.70
2018-10-03T20:07:55.074Z,6.60
2018-10-03T20:10:23.232Z,6.50
2018-10-03T20:12:51.541Z,6.50
2018-10-03T20:15:20.638Z,6.40
2018-10-03T20:17:48.838Z,6.40
2018-10-03T20:20:17.050Z,6.30
2018-10-03T20:22:45.197Z,6.30
2018-10-03T20:25:14.435Z,6.20
2018-10-03T20:27:42.622Z,6.10
2018-10-03T20:30:10.788Z,6.10
2018-10-03T20:32:38.932Z,6.10
2018-10-03T20:35:07.054Z,6.10
2018-10-03T20:37:35.182Z,6.00
2018-10-03T20:40:03.619Z,6.10
2018-10-03T20:42:31.932Z,6.10
2018-10-03T20:45:00.367Z,6.10
2018-10-03T20:47:28.662Z,6.00
2018-10-03T20:49:56.907Z,5.90
2018-10-03T20:52:25.216Z,5.90
2018-10-03T20:54:53.502Z,5.80
2018-10-03T20:57:21.729Z,5.80
2018-10-03T20:59:50.034Z,5.70
2018-10-03T21:02:18.276Z,5.70
2018-10-03T21:04:46.659Z,5.70
2018-10-03T21:07:14.911Z,5.70
2018-10-03T21:09:43.260Z,5.70
2018-10-03T21:12:11.628Z,5.70
2018-10-03T21:14:39.983Z,5.60
2018-10-03T21:17:08.292Z,5.60
2018-10-03T21:19:36.626Z,5.60
2018-10-03T21:22:05.103Z,5.50
2018-10-03T21:24:33.462Z,5.50
2018-10-03T21:27:01.763Z,5.40
2018-10-03T21:29:30.078Z,5.50
2018-10-03T21:31:58.506Z,5.40
2018-10-03T21:34:27.502Z,5.30
2018-10-03T21:36:56.968Z,5.30
2018-10-03T21:39:25.628Z,5.30
2018-10-03T21:41:54.720Z,5.20
2018-10-03T21:44:23.676Z,5.20
2018-10-03T21:46:52.616Z,5.10
2018-10-03T21:49:20.995Z,5.10
2018-10-03T21:51:49.263Z,5.10
2018-10-03T21:54:18.261Z,5.00
2018-10-03T21:56:47.244Z,5.00
2018-10-03T21:59:15.931Z,4.90
2018-10-03T22:01:44.817Z,5.00
2018-10-03T22:04:14.125Z,5.00
2018-10-03T22:06:43.111Z,4.90
2018-10-03T22:09:11.518Z,4.90
2018-10-03T22:11:40.501Z,4.90
2018-10-03T22:14:09.106Z,5.00
2018-10-03T22:16:37.312Z,4.90
2018-10-03T22:19:05.481Z,4.80
2018-10-03T22:21:33.623Z,4.80
2018-10-03T22:24:02.599Z,4.80
2018-10-03T22:26:30.819Z,4.80
2018-10-03T22:28:59.007Z,4.70
2018-10-03T22:31:27.152Z,4.70
2018-10-03T22:33:55.327Z,4.60
2018-10-03T22:36:23.684Z,4.60
2018-10-03T22:38:51.897Z,4.60
2018-10-03T22:41:20.227Z,4.60
2018-10-03T22:43:48.434Z,4.50
2018-10-03T22:46:16.567Z,4.50
2018-10-03T22:48:44.752Z,4.40
2018-10-03T22:51:12.936Z,4.40
2018-10-03T22:53:41.111Z,4.50
2018-10-03T22:56:09.292Z,4.50
2018-10-03T22:58:37.514Z,4.50
2018-10-03T23:01:05.792Z,4.50
2018-10-03T23:03:33.975Z,4.40
2018-10-03T23:06:02.222Z,4.30
2018-10-03T23:08:31.374Z,4.30
2018-10-03T23:10:59.894Z,4.30
2018-10-03T23:13:28.067Z,4.20
2018-10-03T23:15:56.208Z,4.20
2018-10-03T23:18:24.360Z,4.30
2018-10-03T23:20:52.634Z,4.20
2018-10-03T23:23:20.753Z,4.20
2018-10-03T23:25:49.171Z,4.20
2018-10-03T23:28:17.410Z,4.10
2018-10-03T23:30:45.613Z,4.10
2018-10-03T23:33:13.822Z,4.10
2018-10-03T23:35:42.036Z,4.10
2018-10-03T23:38:10.233Z,4.10
2018-10-03T23:40:38.447Z,4.00
2018-10-03T23:43:06.646Z,4.00
2018-10-03T23:45:34.871Z,4.00
2018-10-03T23:48:03.048Z,4.20
2018-10-03T23:50:31.199Z,4.20
2018-10-03T23:52:59.362Z,4.10
2018-10-03T23:55:27.512Z,4.10
2018-10-03T23:57:55.675Z,4.10
